Data for 03/02/2008

Time Sea-Level Adjusted Pressure Absolute Pressure Temperature Relative Humidity Dew Point   
(mb) (inHg) (mb) (inHg) (C) (F) (%) (C) (F)
00:05 1016 30 845 24.95 -2.3 27.8 73 -6.6 20.1
00:10 1016 30 846 24.98 -2.3 27.9 73 -6.5 20.3
00:15 1016 30 846 24.98 -2.2 28 72 -6.7 20
00:20 1016 30 846 24.98 -2.4 27.6 72 -6.8 19.8
00:25 1016 30 846 24.98 -2.5 27.5 71 -7 19.4
00:30 1016 30 846 24.98 -2.6 27.4 72 -6.9 19.5
00:35 1017 30.03 846 24.98 -2.6 27.3 73 -6.9 19.6
00:40 1017 30.03 846 24.98 -2.6 27.3 72 -7 19.4
00:45 1017 30.03 846 24.98 -2.7 27.2 72 -7 19.4
00:50 1017 30.03 846 24.98 -2.7 27.2 72 -7 19.4
00:55 1017 30.03 846 24.98 -2.6 27.3 72 -7 19.5
01:00 1017 30.03 846 24.98 -2.5 27.6 70 -7.1 19.2
01:05 1017 30.03 846 24.98 -2.3 27.8 70 -7.1 19.2
01:10 1017 30.03 846 24.98 -2.3 27.9 70 -7.1 19.3
01:15 1017 30.03 846 24.98 -2.2 28 69 -7.1 19.2
01:20 1017 30.03 847 25.01 -2.3 27.8 70 -7.1 19.2
01:25 1017 30.03 847 25.01 -2.3 27.8 70 -7 19.4
01:30 1017 30.03 847 25.01 -2.3 27.8 70 -7.1 19.3
01:35 1017 30.03 847 25.01 -2.4 27.7 70 -7.1 19.2
01:40 1017 30.03 847 25.01 -2.5 27.6 70 -7.3 18.9
01:45 1017 30.03 847 25.01 -2.5 27.5 70 -7.3 18.9
01:50 1017 30.03 847 25.01 -2.6 27.3 70 -7.3 18.9
01:55 1018 30.06 847 25.01 -2.6 27.3 70 -7.4 18.7
02:00 1018 30.06 847 25.01 -2.6 27.4 70 -7.3 18.9
02:05 1018 30.06 847 25.01 -2.7 27.2 70 -7.4 18.7
02:10 1018 30.06 847 25.01 -2.8 26.9 70 -7.5 18.5
02:15 1018 30.06 847 25.01 -2.9 26.7 71 -7.5 18.5
02:20 1018 30.06 847 25.01 -3.1 26.5 71 -7.5 18.5
02:25 1018 30.06 847 25.01 -3.1 26.4 71 -7.6 18.4
02:30 1018 30.06 847 25.01 -3.1 26.5 72 -7.5 18.5
02:35 1018 30.06 847 25.01 -3.1 26.4 72 -7.5 18.6
02:40 1018 30.06 847 25.01 -3.1 26.4 72 -7.5 18.6
02:45 1018 30.06 847 25.01 -3.2 26.3 72 -7.4 18.6
02:50 1018 30.06 847 25.01 -3.1 26.4 73 -7.3 18.8
02:55 1018 30.06 847 25.01 -3.1 26.4 73 -7.3 18.8
03:00 1018 30.06 847 25.01 -3.1 26.4 72 -7.4 18.7
03:05 1018 30.06 847 25.01 -3.1 26.4 72 -7.4 18.6
03:10 1018 30.06 847 25.01 -3.2 26.3 72 -7.4 18.6
03:15 1018 30.06 847 25.01 -3.1 26.4 72 -7.5 18.6
03:20 1018 30.06 847 25.01 -3.1 26.4 72 -7.5 18.5
03:25 1018 30.06 847 25.01 -3.2 26.2 72 -7.6 18.4
03:30 1018 30.06 848 25.04 -3.3 26.1 72 -7.6 18.3
03:35 1018 30.06 848 25.04 -3.3 26.1 72 -7.7 18.2
03:40 1018 30.06 848 25.04 -3.4 25.9 72 -7.7 18.1
03:45 1018 30.06 848 25.04 -3.4 25.9 72 -7.7 18.1
03:50 1019 30.09 848 25.04 -3.3 26 72 -7.7 18.2
03:55 1019 30.09 848 25.04 -3.2 26.2 72 -7.6 18.4
04:00 1019 30.09 848 25.04 -3.2 26.2 72 -7.6 18.3
04:05 1019 30.09 848 25.04 -3.2 26.2 72 -7.6 18.3
04:10 1019 30.09 848 25.04 -3.2 26.2 72 -7.6 18.4
04:15 1019 30.09 848 25.04 -3.2 26.2 72 -7.6 18.3
04:20 1019 30.09 848 25.04 -3.3 26.1 72 -7.6 18.4
04:25 1019 30.09 848 25.04 -3.3 26 73 -7.5 18.6
04:30 1019 30.09 849 25.07 -3.3 26.1 73 -7.5 18.5
04:35 1019 30.09 849 25.07 -3.2 26.2 73 -7.3 18.8
04:40 1020 30.12 849 25.07 -3.1 26.3 74 -7.1 19.2
04:45 1020 30.12 849 25.07 -3.1 26.4 74 -7.1 19.2
04:50 1020 30.12 849 25.07 -3.2 26.3 74 -7.1 19.2
04:55 1020 30.12 849 25.07 -3.2 26.2 74 -7.2 19.1
05:00 1020 30.12 849 25.07 -3.2 26.3 74 -7.2 19
05:05 1020 30.12 849 25.07 -3.1 26.5 74 -7.1 19.2
05:10 1020 30.12 849 25.07 -3 26.6 74 -7.1 19.2
05:15 1020 30.12 849 25.07 -3 26.7 74 -7.1 19.3
05:20 1020 30.12 849 25.07 -3 26.6 74 -7.1 19.3
05:25 1020 30.12 849 25.07 -3 26.6 74 -7.1 19.3
05:30 1020 30.12 849 25.07 -3.1 26.4 74 -7.1 19.2
05:35 1020 30.12 849 25.07 -3.2 26.2 74 -7.2 19
05:40 1020 30.12 849 25.07 -3.3 26.1 74 -7.2 19
05:45 1020 30.12 850 25.1 -3.4 25.9 75 -7.2 19
05:50 1020 30.12 850 25.1 -3.4 25.9 75 -7.1 19.2
05:55 1021 30.15 850 25.1 -3.3 26.1 75 -7.1 19.2
06:00 1021 30.15 850 25.1 -3.2 26.2 75 -7 19.3
06:05 1021 30.15 850 25.1 -3.2 26.3 74 -7.1 19.2
06:10 1021 30.15 850 25.1 -3.2 26.2 75 -7 19.4
06:15 1021 30.15 850 25.1 -3.2 26.2 74 -7.1 19.1
06:20 1021 30.15 850 25.1 -3.2 26.2 74 -7.2 19.1
06:25 1021 30.15 850 25.1 -3.2 26.2 75 -7.1 19.3
06:30 1021 30.15 850 25.1 -3.2 26.3 75 -7.1 19.3
06:35 1021 30.15 850 25.1 -3.2 26.2 75 -7.1 19.3
06:40 1021 30.15 850 25.1 -3.3 26.1 75 -7 19.3
06:45 1021 30.15 850 25.1 -3.2 26.2 76 -6.9 19.6
06:50 1021 30.15 850 25.1 -3.2 26.2 76 -6.9 19.5
06:55 1021 30.15 851 25.13 -3.2 26.3 75 -7 19.5
07:00 1021 30.15 851 25.13 -3.1 26.4 75 -6.9 19.5
07:05 1022 30.18 851 25.13 -3.1 26.5 75 -6.9 19.6
07:10 1022 30.18 851 25.13 -3 26.5 75 -6.8 19.7
07:15 1022 30.18 851 25.13 -3 26.5 75 -6.8 19.8
07:20 1022 30.18 851 25.13 -3.1 26.4 76 -6.8 19.8
07:25 1022 30.18 851 25.13 -3.6 25.5 78 -6.8 19.7
07:30 1022 30.18 851 25.13 -3.8 25.1 79 -6.9 19.6
07:35 1022 30.18 851 25.13 -4 24.9 80 -6.8 19.7
07:40 1022 30.18 851 25.13 -4 24.8 81 -6.8 19.8
07:45 1022 30.18 851 25.13 -4 24.8 82 -6.7 20
07:50 1022 30.18 851 25.13 -3.8 25.1 82 -6.5 20.3
07:55 1022 30.18 852 25.16 -3.9 25.1 83 -6.4 20.5
08:00 1022 30.18 852 25.16 -3.6 25.5 83 -6.2 20.9
08:05 1023 30.21 852 25.16 -3.4 25.8 82 -6 21.1
08:10 1023 30.21 852 25.16 -3.4 25.8 82 -6.1 21.1
08:15 1023 30.21 852 25.16 -3.5 25.7 83 -6 21.1
08:20 1023 30.21 852 25.16 -3.4 26 82 -5.9 21.3
08:25 1023 30.21 852 25.16 -3.3 26.1 82 -5.9 21.5
08:30 1023 30.21 852 25.16 -3.1 26.4 81 -5.9 21.4
08:35 1023 30.21 852 25.16 -3 26.6 80 -6 21.2
08:40 1023 30.21 852 25.16 -2.9 26.9 80 -5.9 21.4
08:45 1023 30.21 852 25.16 -2.6 27.4 79 -5.8 21.6
08:50 1023 30.21 852 25.16 -2.5 27.5 76 -6.2 20.8
08:55 1023 30.21 852 25.16 -2.5 27.5 74 -6.4 20.4
09:00 1023 30.21 852 25.16 -2.2 28.1 73 -6.4 20.6
09:05 1023 30.21 853 25.19 -1.9 28.6 71 -6.4 20.5
09:10 1023 30.21 853 25.19 -1.5 29.4 70 -6.3 20.7
09:15 1023 30.21 853 25.19 -1.3 29.6 68 -6.4 20.4
09:20 1023 30.21 853 25.19 -1.3 29.6 68 -6.5 20.3
09:25 1024 30.24 853 25.19 -1.4 29.5 67 -6.7 19.9
09:30 1024 30.24 853 25.19 -1.7 28.9 68 -6.9 19.7
09:35 1024 30.24 853 25.19 -1.8 28.7 68 -6.9 19.5
09:40 1024 30.24 853 25.19 -1.9 28.6 69 -6.9 19.5
09:45 1024 30.24 853 25.19 -1.9 28.5 69 -6.9 19.6
09:50 1024 30.24 853 25.19 -1.8 28.7 68 -6.9 19.5
09:55 1024 30.24 853 25.19 -1.8 28.7 69 -6.8 19.8
10:00 1024 30.24 853 25.19 -1.9 28.6 69 -6.8 19.8
10:05 1024 30.24 853 25.19 -2.1 28.3 70 -6.9 19.7
10:10 1024 30.24 853 25.19 -2.1 28.2 71 -6.7 19.9
10:15 1024 30.24 853 25.19 -2 28.4 71 -6.5 20.2
10:20 1024 30.24 853 25.19 -2 28.3 71 -6.6 20.1
10:25 1024 30.24 853 25.19 -2.2 28 71 -6.8 19.8
10:30 1024 30.24 853 25.19 -2.5 27.6 71 -7 19.4
10:35 1024 30.24 853 25.19 -2.5 27.6 71 -7 19.3
10:40 1024 30.24 853 25.19 -2.3 27.8 70 -7 19.4
10:45 1024 30.24 853 25.19 -2.3 27.9 71 -6.9 19.6
10:50 1024 30.24 853 25.19 -2.2 28.1 70 -6.9 19.6
10:55 1024 30.24 853 25.19 -2 28.4 70 -6.9 19.7
11:00 1024 30.24 853 25.19 -1.5 29.3 69 -6.4 20.4
11:05 1024 30.24 853 25.19 -1.2 29.8 67 -6.7 20
11:10 1024 30.24 853 25.19 -1.5 29.3 68 -6.7 19.9
11:15 1024 30.24 853 25.19 -1.7 29 67 -7 19.4
11:20 1024 30.24 853 25.19 -1.5 29.4 68 -6.7 19.9
11:25 1024 30.24 853 25.19 -1 30.2 63 -7.1 19.2
11:30 1024 30.24 853 25.19 -0.9 30.5 63 -7.1 19.3
11:35 1024 30.24 853 25.19 -0.5 31.1 61 -7.1 19.3
11:40 1024 30.24 853 25.19 -0.2 31.7 58 -7.5 18.5
11:45 1024 30.24 853 25.19 -0.1 31.8 55 -8.1 17.5
11:50 1024 30.24 853 25.19 -0.1 31.8 55 -8.1 17.3
11:55 1024 30.24 853 25.19 0.5 32.9 54 -7.7 18.2
12:00 1024 30.24 853 25.19 0.7 33.3 53 -7.8 18
12:05 1024 30.24 853 25.19 1.2 34.2 51 -7.8 18
12:10 1024 30.24 853 25.19 1.7 35.1 50 -7.6 18.4
12:15 1024 30.24 853 25.19 1.9 35.4 49 -7.7 18.1
12:20 1024 30.24 853 25.19 1.7 35.1 49 -7.7 18.1
12:25 1024 30.24 853 25.19 0.5 33 54 -7.6 18.3
12:30 1024 30.24 853 25.19 0.3 32.6 54 -7.9 17.7
12:35 1024 30.24 853 25.19 1 33.8 50 -8.4 16.9
12:40 1024 30.24 853 25.19 0.8 33.4 52 -8 17.7
12:45 1024 30.24 853 25.19 0.8 33.5 53 -7.6 18.3
12:50 1024 30.24 853 25.19 0.6 33.1 57 -7 19.4
12:55 1024 30.24 853 25.19 1.1 34 56 -6.8 19.8
13:00 1024 30.24 853 25.19 1.4 34.4 54 -7 19.4
13:05 1024 30.24 853 25.19 1.2 34.1 54 -7.1 19.3
13:10 1023 30.21 853 25.19 1.1 34.1 54 -7.1 19.3
13:15 1023 30.21 853 25.19 0.6 33.1 56 -7.2 19
13:20 1023 30.21 853 25.19 0.3 32.6 55 -7.7 18.1
13:25 1023 30.21 853 25.19 0.4 32.8 56 -7.3 18.9
13:30 1023 30.21 853 25.19 1.5 34.7 52 -7.2 19
13:35 1023 30.21 852 25.16 1.2 34.2 52 -7.5 18.5
13:40 1023 30.21 852 25.16 1 33.8 52 -7.7 18.1
13:45 1023 30.21 852 25.16 1.3 34.3 53 -7.3 18.9
13:50 1023 30.21 852 25.16 1.2 34.2 53 -7.4 18.8
13:55 1023 30.21 852 25.16 1.4 34.5 52 -7.4 18.7
14:00 1023 30.21 852 25.16 1.6 34.9 54 -6.8 19.8
14:05 1023 30.21 852 25.16 1.3 34.4 55 -6.7 20
14:10 1023 30.21 853 25.19 0.8 33.5 58 -6.5 20.2
14:15 1023 30.21 853 25.19 1.4 34.6 56 -6.5 20.3
14:20 1023 30.21 852 25.16 2 35.6 52 -6.8 19.7
14:25 1023 30.21 852 25.16 2 35.7 54 -6.2 20.8
14:30 1023 30.21 853 25.19 1.7 35.1 54 -6.6 20
14:35 1023 30.21 853 25.19 1.8 35.2 55 -6.2 20.8
14:40 1023 30.21 853 25.19 2.2 35.9 53 -6.4 20.5
14:45 1023 30.21 853 25.19 1.8 35.3 54 -6.6 20.1
14:50 1023 30.21 853 25.19 2.1 35.7 51 -7.1 19.3
14:55 1023 30.21 853 25.19 2.3 36.1 51 -6.7 19.9
15:00 1023 30.21 853 25.19 2.7 36.8 50 -6.8 19.8
15:05 1024 30.24 853 25.19 2.4 36.3 47 -7.7 18.2
15:10 1024 30.24 853 25.19 2.7 36.8 47 -7.4 18.6
15:15 1024 30.24 853 25.19 3 37.4 45 -7.8 18
15:20 1024 30.24 853 25.19 2.3 36.2 47 -7.8 17.9
15:25 1024 30.24 853 25.19 1.9 35.3 48 -7.9 17.7
15:30 1024 30.24 853 25.19 1.2 34.2 50 -7.9 17.7
15:35 1024 30.24 853 25.19 1.1 34 52 -7.8 18
15:40 1024 30.24 853 25.19 2.1 35.7 50 -7.4 18.7
15:45 1024 30.24 853 25.19 2.4 36.3 50 -7.1 19.3
15:50 1024 30.24 853 25.19 2.3 36.2 50 -7 19.5
15:55 1024 30.24 853 25.19 1.7 35.1 53 -6.8 19.7
16:00 1024 30.24 853 25.19 1.6 35 53 -6.9 19.5
16:05 1024 30.24 853 25.19 1.9 35.3 52 -6.9 19.6
16:10 1024 30.24 853 25.19 1.6 34.8 55 -6.6 20.2
16:15 1024 30.24 853 25.19 0.9 33.6 58 -6.5 20.4
16:20 1024 30.24 853 25.19 0.8 33.4 60 -6.1 21.1
16:25 1024 30.24 853 25.19 0.8 33.4 61 -5.9 21.4
16:30 1024 30.24 853 25.19 0.6 33 64 -5.5 22
16:35 1024 30.24 853 25.19 0.2 32.4 65 -5.7 21.8
16:40 1024 30.24 853 25.19 -0 31.9 66 -5.7 21.8
16:45 1024 30.24 853 25.19 0.1 32.1 65 -5.6 21.8
16:50 1024 30.24 853 25.19 -0.3 31.4 67 -5.7 21.8
16:55 1024 30.24 853 25.19 -0.5 31.1 68 -5.7 21.8
17:00 1024 30.24 853 25.19 -0.5 31.1 68 -5.6 21.8
17:05 1024 30.24 853 25.19 -0.6 30.9 69 -5.7 21.8
17:10 1024 30.24 853 25.19 -1.1 30.1 70 -5.9 21.4
17:15 1024 30.24 853 25.19 -1.1 30.1 71 -5.7 21.7
17:20 1024 30.24 853 25.19 -1.1 30.1 71 -5.7 21.8
17:25 1024 30.24 853 25.19 -1.2 29.9 72 -5.7 21.8
17:30 1024 30.24 853 25.19 -1 30.1 72 -5.5 22.1
17:35 1024 30.24 853 25.19 -1.3 29.7 73 -5.6 21.9
17:40 1024 30.24 853 25.19 -1.1 30 72 -5.5 22
17:45 1024 30.24 853 25.19 -1.5 29.2 74 -5.7 21.8
17:50 1024 30.24 853 25.19 -1.6 29.1 74 -5.6 21.9
17:55 1024 30.24 853 25.19 -1.5 29.3 75 -5.4 22.2
18:00 1024 30.24 853 25.19 -1.3 29.6 74 -5.4 22.2
18:05 1024 30.24 853 25.19 -1.6 29.2 74 -5.6 21.9
18:10 1024 30.24 853 25.19 -1.9 28.6 75 -5.8 21.6
18:15 1024 30.24 853 25.19 -2.1 28.3 75 -5.8 21.5
18:20 1024 30.24 853 25.19 -2.1 28.3 76 -5.7 21.7
18:25 1024 30.24 854 25.22 -2.2 28 77 -5.7 21.7
18:30 1024 30.24 854 25.22 -2.5 27.5 78 -5.8 21.5
18:35 1025 30.27 854 25.22 -2.6 27.4 78 -5.8 21.5
18:40 1024 30.24 854 25.22 -2.5 27.5 79 -5.6 21.9
18:45 1024 30.24 854 25.22 -2.4 27.6 79 -5.6 22
18:50 1024 30.24 854 25.22 -2.4 27.8 79 -5.6 22
18:55 1024 30.24 853 25.19 -2.2 28 79 -5.5 22.1
19:00 1024 30.24 853 25.19 -2.2 28 79 -5.5 22.1
19:05 1024 30.24 853 25.19 -2.4 27.6 79 -5.6 21.8
19:10 1024 30.24 853 25.19 -2.5 27.4 79 -5.7 21.7
19:15 1024 30.24 854 25.22 -2.5 27.5 79 -5.6 21.9
19:20 1024 30.24 854 25.22 -2.1 28.2 78 -5.4 22.3
19:25 1024 30.24 854 25.22 -2 28.4 77 -5.5 22.2
19:30 1024 30.24 854 25.22 -2.2 28 78 -5.6 21.9
19:35 1024 30.24 854 25.22 -2.3 27.8 78 -5.7 21.7
19:40 1024 30.24 854 25.22 -2.1 28.2 74 -6.2 20.9
19:45 1024 30.24 853 25.19 -2.3 27.9 72 -6.7 20
19:50 1024 30.24 853 25.19 -2.4 27.8 71 -6.9 19.6
19:55 1024 30.24 853 25.19 -2.7 27.1 72 -7.1 19.3
20:00 1024 30.24 853 25.19 -2.8 27 71 -7.4 18.7
20:05 1024 30.24 853 25.19 -2.7 27.1 70 -7.4 18.6
20:10 1024 30.24 853 25.19 -2.7 27.1 69 -7.6 18.4
20:15 1024 30.24 853 25.19 -2.9 26.8 69 -7.8 18
20:20 1024 30.24 854 25.22 -3.1 26.5 69 -8 17.7
20:25 1024 30.24 853 25.19 -3.4 25.9 69 -8.2 17.2
20:30 1024 30.24 853 25.19 -3.4 25.8 69 -8.3 17.1
20:35 1024 30.24 853 25.19 -3.6 25.4 69 -8.6 16.6
20:40 1024 30.24 854 25.22 -3.4 25.8 67 -8.8 16.2
20:45 1024 30.24 854 25.22 -3.3 26 67 -8.7 16.3
20:50 1024 30.24 854 25.22 -3.8 25.1 67 -9.1 15.7
20:55 1024 30.24 854 25.22 -3.8 25.1 66 -9.2 15.4
21:00 1024 30.24 854 25.22 -3.5 25.6 65 -9.2 15.4
21:05 1025 30.27 854 25.22 -3.1 26.3 62 -9.4 15.1
21:10 1024 30.24 854 25.22 -3.4 25.9 62 -9.7 14.5
21:15 1024 30.24 854 25.22 -4.3 24.3 63 -10.2 13.6
21:20 1024 30.24 854 25.22 -4.7 23.6 65 -10.3 13.4
21:25 1025 30.27 854 25.22 -4.1 24.7 64 -10 14
21:30 1024 30.24 854 25.22 -3.6 25.6 63 -9.6 14.7
21:35 1024 30.24 854 25.22 -3.2 26.2 62 -9.6 14.7
21:40 1024 30.24 854 25.22 -3.1 26.5 61 -9.6 14.7
21:45 1025 30.27 854 25.22 -3.2 26.3 60 -9.9 14.2
21:50 1025 30.27 854 25.22 -3.3 26.1 59 -10.2 13.7
21:55 1025 30.27 854 25.22 -3.6 25.5 60 -10.4 13.3
22:00 1025 30.27 854 25.22 -3.7 25.4 60 -10.4 13.3
22:05 1025 30.27 854 25.22 -3.8 25.2 60 -10.5 13.1
22:10 1025 30.27 854 25.22 -4.3 24.3 61 -10.7 12.7
22:15 1025 30.27 854 25.22 -4.5 24 62 -10.7 12.8
22:20 1025 30.27 854 25.22 -4.4 24.2 62 -10.6 12.9
22:25 1025 30.27 854 25.22 -4.2 24.5 61 -10.7 12.8
22:30 1025 30.27 854 25.22 -4.4 24 62 -10.7 12.7
22:35 1024 30.24 854 25.22 -4.7 23.5 63 -10.8 12.5
22:40 1024 30.24 854 25.22 -4.8 23.4 63 -10.9 12.5
22:45 1024 30.24 854 25.22 -4.8 23.3 62 -10.9 12.3
22:50 1024 30.24 854 25.22 -4.9 23.2 63 -11 12.3
22:55 1024 30.24 854 25.22 -4.8 23.4 63 -10.9 12.4
23:00 1024 30.24 854 25.22 -4.7 23.6 62 -10.9 12.4
23:05 1024 30.24 854 25.22 -4.6 23.7 62 -10.8 12.6
23:10 1024 30.24 854 25.22 -4.6 23.8 62 -10.8 12.5
23:15 1024 30.24 854 25.22 -4.3 24.3 61 -10.7 12.8
23:20 1024 30.24 854 25.22 -4.2 24.4 60 -10.8 12.5
23:25 1024 30.24 854 25.22 -4.6 23.7 61 -11 12.2
23:30 1024 30.24 854 25.22 -4.3 24.3 60 -10.9 12.3
23:35 1024 30.24 854 25.22 -4 24.7 59 -10.8 12.5
23:40 1025 30.27 854 25.22 -3.9 24.9 59 -10.9 12.3
23:45 1025 30.27 854 25.22 -4.2 24.4 59 -11 12.2
23:50 1025 30.27 854 25.22 -4.5 23.9 59 -11.3 11.7
23:55 1025 30.27 854 25.22 -5.1 22.9 61 -11.5 11.4
24:00 1025 30.27 854 25.22 -5.2 22.7 62 -11.5 11.4